MSC Michela — CQID5 — position and weather

sailwx.info

Track history (hours):
 
Tides and Currents Weather Stations Pressure Air Temp Water Temp Dewpoint Dewpoint Depression Visibility Wind Speed Wind Dir Waves Ship Positions

MSC Michela

Last reported at 2017-Nov-24 12:29 UTC. Time now 2017-Nov-24 12:54 UTC.
Position N 37°48' W 122°19'.

Length 300 m; draft 10.1 m.

Type: Ship (hazmat cat A). MMSI: 255805929.

Date/timePositionNaut miles runAvg speedWind from/ knotsBaromVisibWave heightAir tempDewpointWater temp
2017-Nov-24 12:29N 37°48' W 122°19'0 0.0
2017-Nov-24 11:59N 37°48' W 122°19'0 0.0
2017-Nov-24 11:29N 37°48' W 122°19'0 0.0
2017-Nov-24 10:59N 37°48' W 122°19'0 0.0
2017-Nov-24 10:29N 37°48' W 122°19'0 0.0
2017-Nov-24 09:59N 37°48' W 122°19'0 0.0
2017-Nov-24 09:29N 37°48' W 122°19'0 0.0
2017-Nov-24 08:59N 37°48' W 122°19'0 0.0
2017-Nov-24 08:29N 37°48' W 122°19'0 0.0
2017-Nov-24 07:59N 37°48' W 122°19'0 0.0
2017-Nov-24 07:29N 37°48' W 122°19'0 0.0
2017-Nov-24 06:59N 37°48' W 122°19'0 0.0
2017-Nov-24 06:29N 37°48' W 122°19'0 0.0
2017-Nov-24 05:59N 37°48' W 122°19'0 0.0
2017-Nov-24 05:29N 37°48' W 122°19'0 0.0
2017-Nov-24 04:59N 37°48' W 122°19'0 0.0
2017-Nov-24 04:29N 37°48' W 122°19'0 0.0
2017-Nov-24 03:59N 37°48' W 122°19'1 1.2
2017-Nov-24 03:30N 37°48' W 122°18'0 0.0
2017-Nov-24 03:00N 37°48' W 122°18'3 5.8
2017-Nov-24 02:30N 37°48' W 122°22'611.4
2017-Nov-24 02:00N 37°49' W 122°29'815.4
2017-Nov-24 01:31N 37°46' W 122°38'5 9.3
2017-Nov-24 01:00N 37°43' W 122°42'4 7.3
2017-Nov-24 00:30N 37°39' W 122°40'4 8.0
2017-Nov-24 00:00N 37°35' W 122°40'4 8.4
2017-Nov-23 23:30N 37°31' W 122°40'510.9
2017-Nov-23 23:00N 37°25' W 122°40'611.0
2017-Nov-23 22:30N 37°20' W 122°40'511.1
2017-Nov-23 22:00N 37°14' W 122°40'611.2
2017-Nov-23 21:30N 37°09' W 122°37'611.5
2017-Nov-23 21:00N 37°04' W 122°34'611.1
2017-Nov-23 20:30N 36°59' W 122°31'610.9
2017-Nov-23 20:00N 36°54' W 122°29'510.6
2017-Nov-23 19:30N 36°49' W 122°28'510.7
2017-Nov-23 19:00N 36°44' W 122°25'510.9
2017-Nov-23 18:30N 36°39' W 122°23'510.7
2017-Nov-23 18:00N 36°34' W 122°20'510.8
2017-Nov-23 17:30N 36°29' W 122°18'611.1
2017-Nov-23 17:00N 36°23' W 122°15'611.1
2017-Nov-23 16:30N 36°18' W 122°12'611.4
2017-Nov-23 16:00N 36°13' W 122°09'611.1
2017-Nov-23 15:30N 36°09' W 122°06'611.3
2017-Nov-23 15:00N 36°04' W 122°02'710.6
2017-Nov-23 14:23N 35°58' W 121°58'1510.8
2017-Nov-23 13:02N 35°45' W 121°49'011.1
2017-Nov-23 13:00N 35°45' W 121°49'910.8
2017-Nov-23 12:10N 35°38' W 121°43'210.7
2017-Nov-23 11:58N 35°36' W 121°41'510.6
2017-Nov-23 11:28N 35°31' W 121°38'810.6
2017-Nov-23 10:44N 35°24' W 121°34'2 9.0
2017-Nov-23 10:28N 35°22' W 121°32'510.3
2017-Nov-23 10:00N 35°18' W 121°29'610.6
2017-Nov-23 09:29N 35°13' W 121°25'510.8
2017-Nov-23 09:00N 35°09' W 121°22'510.9
2017-Nov-23 08:30N 35°04' W 121°19'510.8
2017-Nov-23 08:00N 34°60' W 121°16'611.2
2017-Nov-23 07:26N 34°54' W 121°12'410.3
2017-Nov-23 07:00N 34°50' W 121°09'810.9
2017-Nov-23 06:18N 34°44' W 121°04'310.1
2017-Nov-23 06:00N 34°41' W 121°03'510.3
2017-Nov-23 05:30N 34°37' W 120°59'510.2
2017-Nov-23 05:00N 34°32' W 120°56'5 9.6
2017-Nov-23 04:30N 34°28' W 120°53'4 8.6
2017-Nov-23 04:00N 34°26' W 120°49'5 9.2
2017-Nov-23 03:30N 34°24' W 120°44'5 9.2
2017-Nov-23 03:00N 34°23' W 120°38'5 9.6
2017-Nov-23 02:30N 34°22' W 120°33'5 9.6
2017-Nov-23 02:00N 34°21' W 120°27'5 9.2
2017-Nov-23 01:25N 34°19' W 120°21'4 9.2
2017-Nov-23 01:00N 34°18' W 120°16'5 9.6
2017-Nov-23 00:30N 34°17' W 120°11'6 9.5
2017-Nov-22 23:53N 34°15' W 120°04'4 9.9
2017-Nov-22 23:30N 34°14' W 119°59'5 9.7
2017-Nov-22 22:59N 34°13' W 119°54'510.3
2017-Nov-22 22:29N 34°12' W 119°48'510.0
2017-Nov-22 22:00N 34°10' W 119°42'510.2
2017-Nov-22 21:29N 34°09' W 119°36'5 9.9
2017-Nov-22 21:00N 34°07' W 119°30'4 9.1
2017-Nov-22 20:30N 34°06' W 119°25'5 9.1
2017-Nov-22 20:00N 34°05' W 119°20'5 8.7
2017-Nov-22 19:29N 34°04' W 119°14'  
Track history (hours):
 
Tides and Currents Weather Stations Pressure Air Temp Water Temp Dewpoint Dewpoint Depression Visibility Wind Speed Wind Dir Waves Ship Positions

MSC Michela

Last reported at 2017-Nov-24 12:29 UTC. Time now 2017-Nov-24 12:54 UTC.
Position N 37°48' W 122°19'.

Length 300 m; draft 10.1 m.

Type: Ship (hazmat cat A). MMSI: 255805929.

Date/timePositionNaut miles runAvg speedWind from/ knotsBaromVisibWave heightAir tempDewpointWater temp
2017-Nov-24 12:29N 37°48' W 122°19'0 0.0
2017-Nov-24 11:59N 37°48' W 122°19'0 0.0
2017-Nov-24 11:29N 37°48' W 122°19'0 0.0
2017-Nov-24 10:59N 37°48' W 122°19'0 0.0
2017-Nov-24 10:29N 37°48' W 122°19'0 0.0
2017-Nov-24 09:59N 37°48' W 122°19'0 0.0
2017-Nov-24 09:29N 37°48' W 122°19'0 0.0
2017-Nov-24 08:59N 37°48' W 122°19'0 0.0
2017-Nov-24 08:29N 37°48' W 122°19'0 0.0
2017-Nov-24 07:59N 37°48' W 122°19'0 0.0
2017-Nov-24 07:29N 37°48' W 122°19'0 0.0
2017-Nov-24 06:59N 37°48' W 122°19'0 0.0
2017-Nov-24 06:29N 37°48' W 122°19'0 0.0
2017-Nov-24 05:59N 37°48' W 122°19'0 0.0
2017-Nov-24 05:29N 37°48' W 122°19'0 0.0
2017-Nov-24 04:59N 37°48' W 122°19'0 0.0
2017-Nov-24 04:29N 37°48' W 122°19'0 0.0
2017-Nov-24 03:59N 37°48' W 122°19'1 1.2
2017-Nov-24 03:30N 37°48' W 122°18'0 0.0
2017-Nov-24 03:00N 37°48' W 122°18'3 5.8
2017-Nov-24 02:30N 37°48' W 122°22'611.4
2017-Nov-24 02:00N 37°49' W 122°29'815.4
2017-Nov-24 01:31N 37°46' W 122°38'5 9.3
2017-Nov-24 01:00N 37°43' W 122°42'4 7.3
2017-Nov-24 00:30N 37°39' W 122°40'4 8.0
2017-Nov-24 00:00N 37°35' W 122°40'4 8.4
2017-Nov-23 23:30N 37°31' W 122°40'510.9
2017-Nov-23 23:00N 37°25' W 122°40'611.0
2017-Nov-23 22:30N 37°20' W 122°40'511.1
2017-Nov-23 22:00N 37°14' W 122°40'611.2
2017-Nov-23 21:30N 37°09' W 122°37'611.5
2017-Nov-23 21:00N 37°04' W 122°34'611.1
2017-Nov-23 20:30N 36°59' W 122°31'610.9
2017-Nov-23 20:00N 36°54' W 122°29'510.6
2017-Nov-23 19:30N 36°49' W 122°28'510.7
2017-Nov-23 19:00N 36°44' W 122°25'510.9
2017-Nov-23 18:30N 36°39' W 122°23'510.7
2017-Nov-23 18:00N 36°34' W 122°20'510.8
2017-Nov-23 17:30N 36°29' W 122°18'611.1
2017-Nov-23 17:00N 36°23' W 122°15'611.1
2017-Nov-23 16:30N 36°18' W 122°12'611.4
2017-Nov-23 16:00N 36°13' W 122°09'611.1
2017-Nov-23 15:30N 36°09' W 122°06'611.3
2017-Nov-23 15:00N 36°04' W 122°02'710.6
2017-Nov-23 14:23N 35°58' W 121°58'1510.8
2017-Nov-23 13:02N 35°45' W 121°49'011.1
2017-Nov-23 13:00N 35°45' W 121°49'910.8
2017-Nov-23 12:10N 35°38' W 121°43'210.7
2017-Nov-23 11:58N 35°36' W 121°41'510.6
2017-Nov-23 11:28N 35°31' W 121°38'810.6
2017-Nov-23 10:44N 35°24' W 121°34'2 9.0
2017-Nov-23 10:28N 35°22' W 121°32'510.3
2017-Nov-23 10:00N 35°18' W 121°29'610.6
2017-Nov-23 09:29N 35°13' W 121°25'510.8
2017-Nov-23 09:00N 35°09' W 121°22'510.9
2017-Nov-23 08:30N 35°04' W 121°19'510.8
2017-Nov-23 08:00N 34°60' W 121°16'611.2
2017-Nov-23 07:26N 34°54' W 121°12'410.3
2017-Nov-23 07:00N 34°50' W 121°09'810.9
2017-Nov-23 06:18N 34°44' W 121°04'310.1
2017-Nov-23 06:00N 34°41' W 121°03'510.3
2017-Nov-23 05:30N 34°37' W 120°59'510.2
2017-Nov-23 05:00N 34°32' W 120°56'5 9.6
2017-Nov-23 04:30N 34°28' W 120°53'4 8.6
2017-Nov-23 04:00N 34°26' W 120°49'5 9.2
2017-Nov-23 03:30N 34°24' W 120°44'5 9.2
2017-Nov-23 03:00N 34°23' W 120°38'5 9.6
2017-Nov-23 02:30N 34°22' W 120°33'5 9.6
2017-Nov-23 02:00N 34°21' W 120°27'5 9.2
2017-Nov-23 01:25N 34°19' W 120°21'4 9.2
2017-Nov-23 01:00N 34°18' W 120°16'5 9.6
2017-Nov-23 00:30N 34°17' W 120°11'6 9.5
2017-Nov-22 23:53N 34°15' W 120°04'4 9.9
2017-Nov-22 23:30N 34°14' W 119°59'5 9.7
2017-Nov-22 22:59N 34°13' W 119°54'510.3
2017-Nov-22 22:29N 34°12' W 119°48'510.0
2017-Nov-22 22:00N 34°10' W 119°42'510.2
2017-Nov-22 21:29N 34°09' W 119°36'5 9.9
2017-Nov-22 21:00N 34°07' W 119°30'4 9.1
2017-Nov-22 20:30N 34°06' W 119°25'5 9.1
2017-Nov-22 20:00N 34°05' W 119°20'5 8.7
2017-Nov-22 19:29N 34°04' W 119°14'  

Dump ship's entire track history